Time;durP1;ratioP1;P1;durP2;ratioP2;P2;SDS_P1;SDS_P2;PMS_P1;PMS_P2;Temp;Humidity;BMP_temperature;BMP_pressure;BME280_temperature;BME280_humidity;BME280_pressure;Samples;Min_cycle;Max_cycle;Signal;HPM_P1;HPM_P2
2022/12/16 00:01:35;;;;;;;52.37;35.93;;;;;;;-2.59;100.00;99177.47;5020039;28;20203;-75
2022/12/16 00:04:01;;;;;;;52.47;36.93;;;;;;;-2.59;100.00;99185.09;5016969;28;20294;-75
2022/12/16 00:06:30;;;;;;;50.60;37.30;;;;;;;-2.61;100.00;99187.56;5019650;28;20606;-75
2022/12/16 00:08:55;;;;;;;56.47;40.13;;;;;;;-2.66;100.00;99184.91;5019902;28;20190;-75
2022/12/16 00:11:21;;;;;;;58.27;39.43;;;;;;;-2.64;100.00;99187.47;5018675;28;20773;-75
2022/12/16 00:13:47;;;;;;;61.13;41.27;;;;;;;-2.67;100.00;99193.31;5015295;28;20350;-75
2022/12/16 00:16:15;;;;;;;63.47;41.43;;;;;;;-2.68;100.00;99189.06;5015246;28;20211;-75
2022/12/16 00:18:40;;;;;;;67.03;44.03;;;;;;;-2.68;100.00;99195.81;5019201;28;20190;-75
2022/12/16 00:21:06;;;;;;;70.07;45.30;;;;;;;-2.70;100.00;99190.69;5032732;28;20526;-75
2022/12/16 00:23:33;;;;;;;73.17;47.97;;;;;;;-2.66;100.00;99187.44;5017929;28;22254;-76
2022/12/16 00:25:59;;;;;;;80.30;49.20;;;;;;;-2.69;100.00;99194.94;5017736;28;20555;-76
2022/12/16 00:28:25;;;;;;;76.93;48.90;;;;;;;-2.70;100.00;99197.44;5020687;28;20192;-76
2022/12/16 00:30:52;;;;;;;78.80;49.57;;;;;;;-2.67;100.00;99203.44;5019349;28;20180;-75
2022/12/16 00:33:19;;;;;;;85.13;51.10;;;;;;;-2.68;100.00;99208.50;5021486;28;20210;-75
2022/12/16 00:35:44;;;;;;;92.50;52.90;;;;;;;-2.66;100.00;99209.41;5018592;28;20208;-75
2022/12/16 00:38:10;;;;;;;93.83;53.93;;;;;;;-2.61;100.00;99211.22;5014766;28;20183;-75
2022/12/16 00:40:35;;;;;;;101.23;57.67;;;;;;;-2.62;100.00;99218.75;5016535;28;20664;-75
2022/12/16 00:43:01;;;;;;;98.57;56.73;;;;;;;-2.58;100.00;99217.19;5014796;28;20196;-75
2022/12/16 00:45:26;;;;;;;107.10;57.73;;;;;;;-2.61;100.00;99228.09;5013690;28;20207;-75
2022/12/16 00:47:52;;;;;;;106.97;58.43;;;;;;;-2.63;100.00;99235.66;5014807;28;20573;-75
2022/12/16 00:50:19;;;;;;;104.03;58.27;;;;;;;-2.62;100.00;99241.56;5017261;28;20189;-76
2022/12/16 00:52:46;;;;;;;116.07;59.83;;;;;;;-2.66;100.00;99243.16;5019117;28;20267;-75
2022/12/16 00:55:12;;;;;;;121.17;59.13;;;;;;;-2.62;100.00;99250.03;5020916;28;20301;-74
2022/12/16 00:57:37;;;;;;;114.57;61.13;;;;;;;-2.60;100.00;99250.06;5042590;28;20180;-76
2022/12/16 01:00:04;;;;;;;118.23;60.93;;;;;;;-2.62;100.00;99250.03;5050689;28;20208;-76
2022/12/16 01:02:30;;;;;;;113.67;60.57;;;;;;;-2.64;100.00;99246.59;5021386;28;20250;-75
2022/12/16 01:04:55;;;;;;;120.47;62.10;;;;;;;-2.66;100.00;99257.50;5030032;28;20226;-75
2022/12/16 01:07:20;;;;;;;107.80;60.80;;;;;;;-2.65;100.00;99254.16;5017882;28;20983;-76
2022/12/16 01:09:46;;;;;;;115.93;62.97;;;;;;;-2.70;100.00;99264.16;5019853;28;20279;-76
2022/12/16 01:12:11;;;;;;;115.90;61.97;;;;;;;-2.73;100.00;99261.56;5021672;28;20678;-76
2022/12/16 01:14:36;;;;;;;121.20;62.17;;;;;;;-2.74;100.00;99259.84;4998670;28;20693;-76
2022/12/16 01:17:02;;;;;;;119.50;61.83;;;;;;;-2.71;100.00;99264.97;5015496;28;20267;-75
2022/12/16 01:19:27;;;;;;;113.87;61.17;;;;;;;-2.73;100.00;99259.03;5023860;28;20656;-75
2022/12/16 01:21:52;;;;;;;127.20;64.40;;;;;;;-2.76;100.00;99262.31;5022301;28;20207;-75
2022/12/16 01:24:18;;;;;;;123.97;64.73;;;;;;;-2.76;100.00;99267.38;5023331;28;20781;-75
2022/12/16 01:26:43;;;;;;;127.63;64.90;;;;;;;-2.79;100.00;99264.75;5044782;28;20231;-75
2022/12/16 01:29:08;;;;;;;114.70;62.20;;;;;;;-2.82;100.00;99262.16;5028243;28;20179;-75
2022/12/16 01:31:33;;;;;;;127.43;65.00;;;;;;;-2.81;100.00;99265.53;5019010;28;20187;-76
2022/12/16 01:33:59;;;;;;;126.53;64.40;;;;;;;-2.85;100.00;99258.66;5026136;28;20207;-76
2022/12/16 01:36:25;;;;;;;118.37;63.03;;;;;;;-2.91;100.00;99261.88;5047130;28;20265;-75
2022/12/16 01:38:50;;;;;;;120.87;61.63;;;;;;;-2.96;100.00;99273.56;5027964;28;20179;-74
2022/12/16 01:41:17;;;;;;;124.10;63.97;;;;;;;-2.94;100.00;99274.44;5025768;28;20191;-75
2022/12/16 01:43:43;;;;;;;123.37;64.07;;;;;;;-2.93;100.00;99269.44;5018168;28;20211;-76
2022/12/16 01:46:15;;;;;;;115.37;63.33;;;;;;;-2.89;100.00;99282.19;5017688;28;20259;-75
2022/12/16 01:48:51;;;;;;;125.23;67.07;;;;;;;-2.97;100.00;99276.91;5036466;28;20187;-75
2022/12/16 01:51:28;;;;;;;134.77;66.07;;;;;;;-2.95;100.00;99283.72;5016435;28;20574;-75
2022/12/16 01:53:59;;;;;;;136.90;67.13;;;;;;;-2.93;100.00;99283.75;5019863;28;20296;-76
2022/12/16 01:56:28;;;;;;;131.43;67.57;;;;;;;-2.92;100.00;99278.75;5017946;28;20294;-76
2022/12/16 01:58:54;;;;;;;130.10;68.03;;;;;;;-2.89;100.00;99280.50;5024053;28;20262;-75
2022/12/16 02:01:20;;;;;;;143.10;69.37;;;;;;;-2.92;100.00;99277.88;5021644;28;21532;-75
2022/12/16 02:03:47;;;;;;;140.93;71.10;;;;;;;-2.89;100.00;99282.19;5019566;28;20218;-75
2022/12/16 02:06:13;;;;;;;148.17;72.20;;;;;;;-2.85;100.00;99282.31;5020662;28;20283;-75
2022/12/16 02:08:39;;;;;;;148.33;73.97;;;;;;;-2.85;100.00;99289.03;5021131;28;20278;-75
2022/12/16 02:11:28;;;;;;;142.43;69.27;;;;;;;-2.81;100.00;99289.19;5019760;28;20274;-75
2022/12/16 02:14:02;;;;;;;147.03;70.13;;;;;;;-2.87;100.00;99298.28;5014945;28;20754;-76
2022/12/16 02:16:44;;;;;;;133.33;65.97;;;;;;;-2.87;100.00;99299.13;5016554;28;20216;-75
2022/12/16 02:19:44;;;;;;;127.90;65.77;;;;;;;-2.92;100.00;99286.34;5018888;28;20245;-76
2022/12/16 02:22:24;;;;;;;140.63;66.73;;;;;;;-2.91;100.00;99294.78;5016276;28;20190;-75
2022/12/16 02:25:01;;;;;;;137.40;65.40;;;;;;;-2.93;100.00;99293.88;5029426;28;20263;-74
2022/12/16 02:27:53;;;;;;;141.07;69.60;;;;;;;-2.92;100.00;99293.06;5025919;28;20282;-75
2022/12/16 02:30:44;;;;;;;129.23;65.57;;;;;;;-2.95;100.00;99301.44;5016112;28;20667;-76
2022/12/16 02:33:34;;;;;;;139.00;64.77;;;;;;;-2.95;100.00;99306.50;5021324;28;20199;-75
2022/12/16 02:36:24;;;;;;;122.03;64.43;;;;;;;-3.02;100.00;99302.06;5019288;28;20222;-76
2022/12/16 02:38:58;;;;;;;121.77;62.60;;;;;;;-3.02;100.00;99309.66;5021782;28;20195;-76
2022/12/16 02:42:08;;;;;;;130.90;64.73;;;;;;;-3.06;100.00;99302.78;5015342;28;20189;-75
2022/12/16 02:44:42;;;;;;;129.83;65.40;;;;;;;-3.03;100.00;99315.56;5011235;28;20215;-76
2022/12/16 02:47:08;;;;;;;140.87;68.97;;;;;;;-3.02;100.00;99306.28;5020306;28;20264;-74
2022/12/16 02:49:33;;;;;;;123.37;65.27;;;;;;;-3.01;100.00;99318.13;5018109;28;20195;-76
2022/12/16 02:52:00;;;;;;;118.93;63.93;;;;;;;-3.02;100.00;99322.31;5018961;28;20230;-76
2022/12/16 02:54:26;;;;;;;127.83;63.03;;;;;;;-3.02;100.00;99326.53;5013833;28;20211;-75
2022/12/16 02:57:04;;;;;;;123.00;62.10;;;;;;;-3.00;100.00;99328.28;5023830;28;20202;-75
2022/12/16 03:00:06;;;;;;;120.13;61.10;;;;;;;-2.99;100.00;99331.69;5020528;28;20244;-76
2022/12/16 03:02:46;;;;;;;102.20;55.83;;;;;;;-3.06;100.00;99331.47;5018969;28;20200;-76
2022/12/16 03:05:20;;;;;;;108.70;58.60;;;;;;;-3.03;100.00;99334.94;5017762;28;20208;-76
2022/12/16 03:07:48;;;;;;;103.07;56.67;;;;;;;-3.03;100.00;99334.94;5029234;28;20242;-77
2022/12/16 03:10:18;;;;;;;99.83;56.50;;;;;;;-3.06;100.00;99334.00;5045451;28;20184;-75
2022/12/16 03:12:45;;;;;;;93.43;54.37;;;;;;;-3.07;100.00;99339.88;5038218;28;20989;-75
2022/12/16 03:15:16;;;;;;;95.67;54.10;;;;;;;-3.08;100.00;99342.38;5017364;28;20212;-75
2022/12/16 03:17:45;;;;;;;87.37;51.50;;;;;;;-3.11;100.00;99338.09;5012576;28;20274;-75
2022/12/16 03:20:17;;;;;;;84.27;49.07;;;;;;;-3.11;100.00;99339.75;5019639;28;20195;-75
2022/12/16 03:22:46;;;;;;;81.53;50.17;;;;;;;-3.14;100.00;99348.13;5029623;28;20230;-76
2022/12/16 03:25:13;;;;;;;79.67;47.83;;;;;;;-3.12;100.00;99346.50;5020566;28;20212;-76
2022/12/16 03:27:41;;;;;;;79.37;47.07;;;;;;;-3.13;100.00;99346.44;5023823;28;20198;-75
2022/12/16 03:30:17;;;;;;;65.53;42.47;;;;;;;-3.19;100.00;99351.31;5023713;28;20193;-75
2022/12/16 03:33:13;;;;;;;68.13;42.20;;;;;;;-3.12;100.00;99353.22;5026765;28;20192;-76
2022/12/16 03:35:46;;;;;;;68.50;41.10;;;;;;;-3.14;100.00;99352.31;5019287;28;20208;-75
2022/12/16 03:38:13;;;;;;;58.07;38.17;;;;;;;-3.16;100.00;99357.34;5026906;28;20648;-76
2022/12/16 03:40:42;;;;;;;62.40;39.77;;;;;;;-3.17;100.00;99355.63;5047729;28;20687;-76
2022/12/16 03:43:10;;;;;;;54.80;37.13;;;;;;;-3.15;100.00;99356.53;5023077;28;20188;-76
2022/12/16 03:45:38;;;;;;;51.43;35.60;;;;;;;-3.17;100.00;99355.63;5019374;28;20184;-75
2022/12/16 03:48:07;;;;;;;53.47;36.13;;;;;;;-3.18;100.00;99358.94;5019502;28;20187;-75
2022/12/16 03:50:34;;;;;;;51.50;33.07;;;;;;;-3.12;100.00;99364.22;5017217;28;20769;-74
2022/12/16 03:53:00;;;;;;;49.00;32.97;;;;;;;-3.17;100.00;99362.31;5016093;28;20610;-75
2022/12/16 03:55:29;;;;;;;48.87;33.97;;;;;;;-3.16;100.00;99364.94;5017013;28;20625;-74
2022/12/16 03:57:56;;;;;;;46.77;31.70;;;;;;;-3.12;100.00;99371.81;5018619;28;20191;-76
2022/12/16 04:00:21;;;;;;;46.67;32.17;;;;;;;-3.12;100.00;99368.41;5011614;28;20266;-75
2022/12/16 04:02:47;;;;;;;41.20;32.07;;;;;;;-3.15;100.00;99376.78;5017418;28;20193;-75
2022/12/16 04:05:12;;;;;;;42.57;29.40;;;;;;;-3.12;100.00;99378.53;5019208;28;20192;-75
2022/12/16 04:07:38;;;;;;;37.00;26.80;;;;;;;-3.12;100.00;99373.47;5001796;28;20290;-76
2022/12/16 04:10:04;;;;;;;35.97;26.40;;;;;;;-3.13;100.00;99377.69;5018769;28;21093;-76
2022/12/16 04:26:16;;;;;;;32.97;23.87;;;;;;;-3.21;100.00;99396.81;5023074;28;20194;-76
2022/12/16 04:28:42;;;;;;;28.67;21.83;;;;;;;-3.18;100.00;99396.06;5024461;28;20603;-75
2022/12/16 04:31:07;;;;;;;26.50;20.03;;;;;;;-3.15;100.00;99397.03;5024698;28;20205;-74
